Aeroporto :
LOGIN :

Iscrizione | Disclaimer

   EN    FR    IT 

 










Sommario :    VFR   VFR Marginale   IFR   IFR Intensivo   IFR Molto Intensivo
Visibilità : 
Base nubi : 
>= 8 km
>= 3000ft
5 / 8 km
1000 / 3000 ft
1500m / 5 km
500 / 1000 ft
800 / 1500m
200 / 500 ft
< 800m
< 200 ft
Simboli :   Temporali  Nebbia  Neve Forte  Precipitazioni Forti  Vento > 20 kt
SIGMETs :   Varie  Temporali  Ghiacco  Turbolenza  Onda orograficha  Ceneri Vulcaniche







- Altitudine del aeroporto : 34 ft
- Codice IATA : BLK
- Carte del aeroporto


EGNH - Blackpool

ULTIMO METAR :
  • 181720Z 05005KT CAVOK 08/05 Q1030

METARs OBSOLETI :
  • 181650Z 05009KT CAVOK 09/06 Q1030
  • 181620Z 06009KT CAVOK 09/06 Q1030
  • 181550Z 07010KT CAVOK 09/06 Q1030

TAF TAF EGNH
Valido dal 18 a 18 ore il 18 a 21 ore UTC


181708Z 1818/1821 07009KT CAVOK
BECMG 1818/1821 BKN025
TEMPO 1818/1821 8000
ATIS : +44 1253 343 434 (x8315)
Nessun NOTAM noto per questo aeroporto.



MetMap, La meteo Aeronautica in un colpo d'occhio ! - Copyright ORBIFLY Dicembre 2007 - Disclaimer

ORBIFLY MET'MAP TEAM :

Programmazione e sviluppo : Alexandra Zaïnal
Concezione e sviluppo : Baudouin d'Aumeries
Co-Programmazione e sviluppo : Marc-Olivier Méhu
Supporto tecnico e logistico : Manuel Goepfert
Aiuto per la traduzione : Arnaldo La Scala

Contatto : metmap@orbifly.com




FONTI E CREDITI :

   NOAA